Flight Track Log - Related Links

Times and Time Zones

All times are in EDT time to prevent confusion due to time zone crossing. See the EJA929 flight status page for this flight to view local times or setup timezone preferences in your user account.

Time Position Orientation Groundspeed Altitude Reporting Facility
EDT Latitude Longitude Course Direction KTS MPH feet Rate Location/Type
Tue 07:34:49 PM 51.0667 -114.0500 288° West 160 184 4,200  Level Edmonton Center
Tue 07:35:49 PM 51.0833 -114.1333 288° West 200 230 7,900 3,150 Climbing Edmonton Center
Tue 07:36:49 PM 51.0667 -114.2500 257° West 240 276 10,500 2,200 Climbing Edmonton Center
Tue 07:37:49 PM 51.0000 -114.3167 212° Southwest 300 345 12,300 1,900 Climbing Edmonton Center
Tue 07:38:49 PM 50.9333 -114.2167 137° Southeast 360 414 14,300 2,500 Climbing Edmonton Center
Tue 07:39:49 PM 50.8667 -114.1000 132° Southeast 360 414 17,300 2,600 Climbing Edmonton Center
Tue 07:40:49 PM 50.7833 -114.0000 143° Southeast 370 426 19,500 2,050 Climbing Edmonton Center
Tue 07:41:49 PM 50.7333 -113.8833 124° Southeast 390 449 21,400 2,100 Climbing Edmonton Center
Tue 07:42:49 PM 50.6333 -113.7333 136° Southeast 400 460 23,700 2,350 Climbing Edmonton Center
Tue 07:43:49 PM 50.5333 -113.6500 152° Southeast 410 472 26,100 2,400 Climbing Edmonton Center
Tue 07:44:49 PM 50.4500 -113.5333 138° Southeast 420 483 28,500 2,050 Climbing Edmonton Center
Tue 07:45:49 PM 50.3500 -113.4333 147° Southeast 430 495 30,200 1,600 Climbing Edmonton Center
Tue 07:46:49 PM 50.2500 -113.3000 140° Southeast 450 518 31,700 1,450 Climbing Edmonton Center
Tue 07:47:49 PM 50.1333 -113.1833 147° Southeast 470 541 33,100 1,250 Climbing Edmonton Center
Tue 07:48:49 PM 50.0333 -113.0500 139° Southeast 470 541 34,200 1,050 Climbing Edmonton Center
Tue 07:49:49 PM 49.9167 -112.9333 147° Southeast 480 552 35,200 1,000 Climbing Edmonton Center
Tue 07:50:49 PM 49.8167 -112.8000 139° Southeast 480 552 36,200 950 Climbing Edmonton Center
Tue 07:51:49 PM 49.7000 -112.6833 147° Southeast 480 552 37,100 800 Climbing Edmonton Center
Tue 07:52:49 PM 49.5833 -112.5500 143° Southeast 490 564 37,800 850 Climbing Edmonton Center
Tue 07:53:49 PM 49.4833 -112.4333 143° Southeast 490 564 38,800 1,000 Climbing Edmonton Center
Tue 07:54:49 PM 49.3667 -112.3167 147° Southeast 480 552 39,800 1,000 Climbing Edmonton Center
Tue 07:55:49 PM 49.2667 -112.2000 143° Southeast 470 541 40,800 600 Climbing Edmonton Center
Tue 07:56:49 PM 49.1667 -112.0667 139° Southeast 460 529 41,000 100 Climbing Edmonton Center
Tue 07:57:49 PM 49.0500 -111.9500 147° Southeast 480 552 41,000  Level Edmonton Center
Tue 07:58:42 PM 49.0056 -111.8547 125° Southeast 486 559 41,000  Level Salt Lake Center
Tue 07:59:44 PM 48.8925 -111.7336 145° Southeast 494 568 41,000  Level Salt Lake Center
Tue 08:00:45 PM 48.7569 -111.5856 144° Southeast 500 575 41,000  Level Salt Lake Center
Tue 08:01:47 PM 48.6403 -111.4625 145° Southeast 509 586 41,000  Level Salt Lake Center
Tue 08:02:48 PM 48.5253 -111.3369 144° Southeast 509 586 41,000  Level Salt Lake Center
Tue 08:03:50 PM 48.4097 -111.2156 145° Southeast 508 585 41,000  Level Salt Lake Center
Tue 08:04:51 PM 48.2942 -111.0936 145° Southeast 507 583 41,000  Level Salt Lake Center
Tue 08:05:53 PM 48.1775 -110.9714 145° Southeast 508 585 41,000  Level Salt Lake Center
Tue 08:06:54 PM 48.0608 -110.8478 145° Southeast 511 588 41,000  Level Salt Lake Center
Tue 08:07:56 PM 47.9431 -110.7264 145° Southeast 511 588 41,000  Level Salt Lake Center
Tue 08:08:57 PM 47.8258 -110.6050 145° Southeast 512 589 41,000  Level Salt Lake Center
Tue 08:09:59 PM 47.7117 -110.4850 145° Southeast 506 582 41,000  Level Salt Lake Center
Tue 08:11:00 PM 47.5656 -110.3403 146° Southeast 516 594 41,000  Level Salt Lake Center
Tue 08:12:02 PM 47.4494 -110.2217 145° Southeast 510 587 41,000  Level Salt Lake Center
Tue 08:13:03 PM 47.3339 -110.1056 146° Southeast 504 580 41,000  Level Salt Lake Center
Tue 08:14:05 PM 47.2175 -109.9886 146° Southeast 504 580 41,000  Level Salt Lake Center
Tue 08:15:06 PM 47.1025 -109.8714 145° Southeast 505 581 41,000  Level Salt Lake Center
Tue 08:16:08 PM 46.9864 -109.7547 146° Southeast 505 581 41,000  Level Salt Lake Center
Tue 08:17:10 PM 46.8689 -109.6408 146° Southeast 506 582 41,000  Level Salt Lake Center
Tue 08:18:11 PM 46.7525 -109.5261 146° Southeast 506 582 41,000  Level Salt Lake Center
Tue 08:19:13 PM 46.6122 -109.3925 147° Southeast 501 577 41,000  Level Salt Lake Center
Tue 08:20:14 PM 46.4967 -109.2781 146° Southeast 501 577 41,000  Level Salt Lake Center
Tue 08:21:16 PM 46.3797 -109.1678 147° Southeast 504 580 41,000  Level Salt Lake Center
Tue 08:22:17 PM 46.2619 -109.0542 146° Southeast 508 585 41,000  Level Salt Lake Center
Tue 08:23:19 PM 46.1442 -108.9425 147° Southeast 506 582 41,000  Level Salt Lake Center
Tue 08:24:20 PM 46.0264 -108.8314 147° Southeast 507 583 41,000  Level Salt Lake Center
Tue 08:25:22 PM 45.9075 -108.7203 147° Southeast 510 587 41,000  Level Salt Lake Center
Tue 08:26:23 PM 45.7911 -108.6078 146° Southeast 506 582 41,000  Level Salt Lake Center
Tue 08:27:25 PM 45.6622 -108.4433 138° Southeast 519 597 41,000  Level Salt Lake Center
Tue 08:28:26 PM 45.5564 -108.3103 139° Southeast 509 586 41,000  Level Salt Lake Center
Tue 08:29:28 PM 45.4508 -108.1775 139° Southeast 506 582 41,000  Level Salt Lake Center
Tue 08:30:29 PM 45.3439 -108.0444 139° Southeast 510 587 41,000  Level Salt Lake Center
Tue 08:31:31 PM 45.2361 -107.9117 139° Southeast 511 588 41,000  Level Salt Lake Center
Tue 08:32:32 PM 45.1292 -107.7800 139° Southeast 505 581 41,000  Level Salt Lake Center
Tue 08:33:34 PM 45.0225 -107.6478 139° Southeast 504 580 41,000  Level Salt Lake Center
Tue 08:34:35 PM 44.9125 -107.5169 140° Southeast 509 586 41,000  Level Salt Lake Center
Tue 08:35:37 PM 44.8042 -107.3861 139° Southeast 508 585 41,000  Level Salt Lake Center
Tue 08:36:38 PM 44.6956 -107.2558 140° Southeast 510 587 41,000  Level Salt Lake Center
Tue 08:37:40 PM 44.5869 -107.1256 139° Southeast 513 590 41,000  Level Salt Lake Center
Tue 08:38:41 PM 44.4558 -106.9717 140° Southeast 513 590 41,000  Level Salt Lake Center
Tue 08:39:43 PM 44.3481 -106.8461 140° Southeast 506 582 41,000  Level Salt Lake Center
Tue 08:40:44 PM 44.2411 -106.7192 140° Southeast 506 582 41,000  Level Salt Lake Center
Tue 08:41:46 PM 44.1319 -106.5925 140° Southeast 510 587 41,000  Level Salt Lake Center
Tue 08:42:47 PM 44.0231 -106.4656 140° Southeast 509 586 41,000  Level Salt Lake Center
Tue 08:43:49 PM 43.9236 -106.3272 135° Southeast 512 589 41,000  Level Salt Lake Center
Tue 08:44:23 PM 43.8614 -106.2344 133° Southeast 514 592 41,000  Level Denver Center
Tue 08:45:25 PM 43.7675 -106.0964 133° Southeast 514 592 41,000  Level Denver Center
Tue 08:46:27 PM 43.6567 -105.9361 134° Southeast 516 594 41,000  Level Denver Center
Tue 08:47:28 PM 43.5633 -105.8006 134° Southeast 512 589 41,000  Level Denver Center
Tue 08:48:30 PM 43.4544 -105.6411 133° Southeast 511 588 41,000  Level Denver Center
Tue 08:49:32 PM 43.3478 -105.5297 143° Southeast 498 573 41,000  Level Denver Center
Tue 08:50:33 PM 43.2344 -105.4375 149° Southeast 496 571 41,000  Level Denver Center
Tue 08:51:35 PM 43.1042 -105.3272 148° Southeast 493 567 41,000  Level Denver Center
Tue 08:52:37 PM 42.9939 -105.2342 148° Southeast 490 564 41,000  Level Denver Center
Tue 08:53:38 PM 42.8672 -105.1306 149° Southeast 477 549 41,000  Level Denver Center
Tue 08:54:40 PM 42.7575 -105.0394 149° Southeast 483 556 41,000  Level Denver Center
Tue 08:55:42 PM 42.6297 -104.9347 149° Southeast 484 557 41,000  Level Denver Center
Tue 08:56:43 PM 42.5194 -104.8467 150° Southeast 485 558 41,000  Level Denver Center
Tue 08:57:45 PM 42.3908 -104.7400 149° Southeast 492 566 41,000  Level Denver Center
Tue 08:58:47 PM 42.2825 -104.6506 149° Southeast 483 556 41,000  Level Denver Center
Tue 08:59:49 PM 42.1572 -104.5489 149° Southeast 475 547 41,000  Level Denver Center
Tue 09:00:50 PM 42.0492 -104.4622 149° Southeast 473 544 41,000  Level Denver Center
Tue 09:01:52 PM 41.9219 -104.3594 149° Southeast 477 549 41,000  Level Denver Center
Tue 09:02:54 PM 41.8111 -104.2711 149° Southeast 483 556 41,000  Level Denver Center
Tue 09:03:55 PM 41.6817 -104.1672 149° Southeast 487 560 41,000  Level Denver Center
Tue 09:04:57 PM 41.5700 -104.0778 149° Southeast 487 560 41,000  Level Denver Center
Tue 09:05:58 PM 41.4761 -104.0039 149° Southeast 490 564 41,000  Level Denver Center
Tue 09:07:00 PM 41.3261 -103.8867 150° Southeast 491 565 41,000  Level Denver Center
Tue 09:08:02 PM 41.2122 -103.7972 149° Southeast 494 568 41,000  Level Denver Center
Tue 09:09:04 PM 41.0803 -103.6939 149° Southeast 495 570 41,000  Level Denver Center
Tue 09:10:17 PM 40.9594 -103.5997 150° Southeast 498 573 41,000  Level Denver Center
Tue 09:11:19 PM 40.8153 -103.4889 150° Southeast 499 574 41,000  Level Denver Center
Tue 09:12:21 PM 40.6953 -103.3975 150° Southeast 496 571 41,000  Level Denver Center
Tue 09:13:23 PM 40.5767 -103.3053 149° Southeast 495 570 41,000  Level Denver Center
Tue 09:14:24 PM 40.4558 -103.2142 150° Southeast 498 573 41,000  Level Denver Center
Tue 09:15:26 PM 40.3367 -103.1236 150° Southeast 496 571 41,000  Level Denver Center
Tue 09:16:28 PM 40.1925 -103.0150 150° Southeast 496 571 41,000  Level Denver Center
Tue 09:17:29 PM 40.0717 -102.9247 150° Southeast 498 573 41,000  Level Denver Center
Tue 09:18:31 PM 39.9528 -102.8356 150° Southeast 495 570 41,000  Level Denver Center
Tue 09:19:33 PM 39.8331 -102.7464 150° Southeast 496 571 41,000  Level Denver Center
Tue 09:20:34 PM 39.7036 -102.6497 150° Southeast 499 574 41,000  Level Denver Center
Tue 09:21:36 PM 39.5911 -102.5675 151° Southeast 499 574 41,000  Level Denver Center
Tue 09:22:37 PM 39.4703 -102.4778 150° Southeast 500 575 41,000  Level Denver Center
Tue 09:23:39 PM 39.3378 -102.3811 151° Southeast 497 572 41,000  Level Denver Center
Tue 09:24:41 PM 39.2103 -102.2869 150° Southeast 498 573 41,000  Level Denver Center
Tue 09:25:42 PM 39.0947 -102.2039 151° Southeast 497 572 41,000  Level Denver Center
Tue 09:26:43 PM 38.9975 -102.1342 151° Southeast 500 575 41,000  Level Denver Center
Tue 09:27:45 PM 38.8428 -102.0214 150° Southeast 501 577 41,000  Level Denver Center
Tue 09:28:47 PM 38.7258 -101.9364 150° Southeast 505 581 41,000  Level Denver Center
Tue 09:29:48 PM 38.5889 -101.8389 151° Southeast 505 581 41,000  Level Denver Center
Tue 09:30:50 PM 38.4714 -101.7556 151° Southeast 505 581 41,000  Level Denver Center
Tue 09:31:51 PM 38.3342 -101.6583 151° Southeast 506 582 41,000  Level Denver Center
Tue 09:32:53 PM 38.2161 -101.5753 151° Southeast 506 582 41,000  Level Denver Center
Tue 09:33:54 PM 38.0789 -101.4781 151° Southeast 507 583 41,000  Level Denver Center
Tue 09:34:30 PM 38.0206 -101.4367 151° Southeast 506 582 41,000  Level Kansas City Center
Tue 09:35:32 PM 37.8833 -101.3419 151° Southeast 505 581 41,000  Level Kansas City Center
Tue 09:36:33 PM 37.7653 -101.2597 151° Southeast 507 583 41,000  Level Kansas City Center
Tue 09:37:33 PM 37.6269 -101.1650 152° Southeast 511 588 41,000  Level Kansas City Center
Tue 09:38:35 PM 37.5200 -101.0908 151° Southeast 511 588 41,000  Level Kansas City Center
Tue 09:39:37 PM 37.3914 -101.0014 151° Southeast 511 588 41,000  Level Kansas City Center
Tue 09:40:39 PM 37.2533 -100.9058 151° Southeast 511 588 41,000  Level Kansas City Center
Tue 09:41:39 PM 37.1336 -100.8247 152° Southeast 512 589 41,000  Level Kansas City Center
Tue 09:42:41 PM 36.9947 -100.7289 151° Southeast 512 589 41,000  Level Kansas City Center
Tue 09:43:41 PM 36.8742 -100.6478 152° Southeast 513 590 41,000  Level Kansas City Center
Tue 09:44:44 PM 36.7336 -100.5531 152° Southeast 515 593 41,000  Level Kansas City Center
Tue 09:45:45 PM 36.6131 -100.4722 152° Southeast 514 592 41,000  Level Kansas City Center
Tue 09:46:45 PM 36.4931 -100.3917 152° Southeast 513 590 41,000  Level Kansas City Center
Tue 09:47:47 PM 36.3650 -100.3069 152° Southeast 513 590 41,000  Level Kansas City Center
Tue 09:48:49 PM 36.2394 -100.2231 152° Southeast 512 589 41,000  Level Kansas City Center
Tue 09:49:50 PM 36.1161 -100.1394 151° Southeast 508 585 41,000  Level Kansas City Center
Tue 09:50:51 PM 35.9914 -100.0578 152° Southeast 508 585 41,000  Level Kansas City Center
Tue 09:51:52 PM 35.8397 -99.9586 152° Southeast 512 589 41,000  Level Kansas City Center
Tue 09:52:53 PM 35.7136 -99.8758 152° Southeast 514 592 41,000  Level Kansas City Center
Tue 09:53:54 PM 35.5881 -99.7939 152° Southeast 514 592 41,000  Level Kansas City Center
Tue 09:54:41 PM 35.4808 -99.7231 152° Southeast 510 587 41,000  Level Fort Worth Center
Tue 09:55:41 PM 35.3550 -99.6408 152° Southeast 510 587 41,000  Level Fort Worth Center
Tue 09:56:41 PM 35.2292 -99.5611 153° Southeast 510 587 41,000  Level Fort Worth Center
Tue 09:57:41 PM 35.1014 -99.4792 152° Southeast 510 587 41,000  Level Fort Worth Center
Tue 09:58:41 PM 34.9733 -99.3975 152° Southeast 510 587 41,000  Level Fort Worth Center
Tue 09:59:41 PM 34.8472 -99.3161 152° Southeast 510 587 41,000  Level Fort Worth Center
Tue 10:00:41 PM 34.7192 -99.2350 152° Southeast 510 587 41,000  Level Fort Worth Center
Tue 10:01:41 PM 34.5931 -99.1517 151° Southeast 510 587 41,000  Level Fort Worth Center
Tue 10:02:41 PM 34.4792 -99.0864 155° Southeast 510 587 41,000  Level Fort Worth Center
Tue 10:03:41 PM 34.3531 -99.0058 152° Southeast 505 581 41,000  Level Fort Worth Center
Tue 10:04:41 PM 34.2267 -98.9281 153° Southeast 505 581 41,000  Level Fort Worth Center
Tue 10:05:41 PM 34.1003 -98.8508 153° Southeast 505 581 41,000  Level Fort Worth Center
Tue 10:06:41 PM 33.9719 -98.7658 151° Southeast 511 588 41,000  Level Fort Worth Center
Tue 10:07:41 PM 33.8475 -98.6864 152° Southeast 511 588 41,000  Level Fort Worth Center
Tue 10:08:41 PM 33.7169 -98.6047 153° Southeast 516 594 41,000  Level Fort Worth Center
Tue 10:09:41 PM 33.5903 -98.5231 152° Southeast 516 594 41,000  Level Fort Worth Center
Tue 10:10:41 PM 33.4575 -98.4467 154° Southeast 522 601 41,000  Level Fort Worth Center
Tue 10:11:41 PM 33.3161 -98.3581 152° Southeast 522 601 41,000  Level Fort Worth Center
Tue 10:12:41 PM 33.2019 -98.2897 153° Southeast 522 601 41,000  Level Fort Worth Center
Tue 10:13:41 PM 33.0750 -98.2117 153° Southeast 522 601 41,000  Level Fort Worth Center
Tue 10:14:41 PM 32.9419 -98.1314 153° Southeast 522 601 41,000  Level Fort Worth Center
Tue 10:15:41 PM 32.8108 -98.0536 153° Southeast 527 606 41,000  Level Fort Worth Center
Tue 10:16:41 PM 32.6903 -97.9589 147° Southeast 527 606 41,000  Level Fort Worth Center
Tue 10:17:41 PM 32.5883 -97.8300 133° Southeast 524 603 41,000  Level Fort Worth Center
Tue 10:18:41 PM 32.4886 -97.7039 133° Southeast 524 603 41,000  Level Fort Worth Center
Tue 10:19:41 PM 32.3864 -97.5783 134° Southeast 524 603 41,000  Level Fort Worth Center
Tue 10:20:41 PM 32.2864 -97.4503 133° Southeast 524 603 41,000 -50 Level Fort Worth Center
Tue 10:21:41 PM 32.1842 -97.3250 134° Southeast 529 609 40,900 -800 Descending Fort Worth Center
Tue 10:22:41 PM 32.0836 -97.2050 135° Southeast 529 609 39,400 -1,500 Descending Fort Worth Center
Tue 10:23:41 PM 31.9853 -97.0828 133° Southeast 522 601 37,900 -1,200 Descending Fort Worth Center
Tue 10:24:41 PM 31.8783 -96.9486 133° Southeast 515 593 37,000 -900 Descending Fort Worth Center
Tue 10:25:41 PM 31.7861 -96.8367 134° Southeast 515 593 36,100 -1,920 Descending Fort Worth Center
Tue 10:26:46 PM 31.6742 -96.6981 133° Southeast 519 597 33,000 -2,762 Descending Houston Center
Tue 10:27:47 PM 31.5697 -96.5725 134° Southeast 525 604 30,300 -1,967 Descending Houston Center
Tue 10:28:48 PM 31.4489 -96.4650 143° Southeast 538 619 29,000 -1,131 Descending Houston Center
Tue 10:29:49 PM 31.3156 -96.3839 153° Southeast 532 612 28,000 -1,574 Descending Houston Center
Tue 10:30:50 PM 31.1828 -96.3031 152° Southeast 527 606 25,800 -2,410 Descending Houston Center
Tue 10:31:51 PM 31.0586 -96.2267 152° Southeast 505 581 23,100 -2,628 Descending Houston Center
Tue 10:32:51 PM 30.9392 -96.1544 153° Southeast 481 554 20,500 -2,508 Descending Houston Center
Tue 10:33:53 PM 30.8222 -96.0847 153° Southeast 468 539 18,000 -2,400 Descending Houston Center
Tue 10:34:46 PM 30.7256 -96.0281 153° Southeast 394 453 15,900 -1,900 Descending Houston Center
Tue 10:34:53 PM 30.7314 -96.0300 344° North 421 484 16,100 -1,967 Climbing Houston Center
Tue 10:35:47 PM 30.6281 -95.9689 153° Southeast 388 447 13,900 -2,262 Descending Houston Center
Tue 10:35:54 PM 30.6278 -95.9669 99° East 394 453 13,800 -1,881 Descending Houston Center
Tue 10:36:54 PM 30.5331 -95.9119 153° Southeast 345 397 11,800 -1,869 Descending Houston Center
Tue 10:36:55 PM 30.5386 -95.9142 341° North 368 423 11,900 -1,672 Climbing Houston Center
Tue 10:37:55 PM 30.4508 -95.8608 152° Southeast 300 345 10,100 -1,672 Descending Houston Center
Tue 10:37:56 PM 30.4611 -95.8667 334° Northwest 323 372 10,200 -1,082 Climbing Houston Center
Tue 10:38:56 PM 30.3825 -95.8228 154° Southeast 273 314 9,000 -984 Descending Houston Center
Tue 10:38:57 PM 30.3939 -95.8225 North 285 328 9,200 -1,000 Climbing Houston Center
Tue 10:39:56 PM 30.3178 -95.7794 154° Southeast 276 318 8,000 -1,180 Descending Houston Center
Tue 10:39:58 PM 30.3258 -95.7850 329° Northwest 271 312 8,000  Level Houston Center
Tue 10:40:57 PM 30.2528 -95.7314 148° Southeast 272 313 8,000  Level Houston Center
Tue 10:40:59 PM 30.2622 -95.7375 331° Northwest 273 314 8,000 -787 Level Houston Center
Tue 10:41:58 PM 30.1897 -95.6833 147° Southeast 272 313 7,200 -885 Descending Houston Center
Tue 10:42:00 PM 30.1869 -95.6797 132° Southeast 272 313 7,100 -1,745 Descending Houston Center
Tue 10:42:53 PM 30.1336 -95.6417 148° Southeast 263 303 5,600 -1,672 Descending Houston Center
Tue 10:43:01 PM 30.1253 -95.6347 144° Southeast 264 304 5,400 -1,588 Descending Houston Center
Tue 10:44:01 PM 30.0650 -95.5906 148° Southeast 259 298 3,800 -1,438 Descending Houston Center
Tue 10:45:02 PM 30.0189 -95.5378 135° Southeast 243 280 2,500 -1,000 Descending Houston Center
Tue 10:45:49 PM 29.9942 -95.4939 123° Southeast 195 224 2,000 -492 Descending Houston Center
Tue 10:46:03 PM 29.9931 -95.4811 96° East 217 250 2,000 -492 Level Houston Center
Tue 10:46:50 PM 29.9936 -95.4386 89° East 169 194 1,500 -689 Descending Houston Center
Tue 10:47:04 PM 29.9936 -95.4278 90° East 187 215 1,300 -727 Descending Houston Center
Tue 10:47:56 PM 29.9931 -95.3881 91° East 117 135 700 -689 Descending Houston Center
Tue 10:48:05 PM 29.9936 -95.3819 84° East 163 188 600 -343 Descending Houston Center
Tue 10:49:06 PM 29.9933 -95.3428 90° East 154 177 300 -295 Descending Houston Center

Login

Don't have an account? Register now (free) for customized features, flight alerts, and more!